createdAt,value
2022-08-26T00:04:18.946Z,22.71
2022-08-26T00:09:22.939Z,22.65
2022-08-26T00:14:31.042Z,22.61
2022-08-26T00:19:35.178Z,22.55
2022-08-26T00:24:38.085Z,22.49
2022-08-26T00:29:41.032Z,22.42
2022-08-26T00:34:44.205Z,22.34
2022-08-26T00:39:47.383Z,22.25
2022-08-26T00:44:51.079Z,22.15
2022-08-26T00:49:56.420Z,22.10
2022-08-26T00:55:20.466Z,22.07
2022-08-26T01:00:27.737Z,22.00
2022-08-26T01:05:31.020Z,21.94
2022-08-26T01:10:34.124Z,21.88
2022-08-26T01:15:48.276Z,21.83
2022-08-26T01:21:27.463Z,21.77
2022-08-26T01:26:40.679Z,21.69
2022-08-26T01:31:46.986Z,21.64
2022-08-26T01:36:54.407Z,21.62
2022-08-26T01:42:03.247Z,21.62
2022-08-26T01:47:07.902Z,21.61
2022-08-26T01:52:14.463Z,21.58
2022-08-26T01:57:19.459Z,21.54
2022-08-26T02:02:23.189Z,21.46
2022-08-26T02:07:28.691Z,21.34
2022-08-26T02:12:31.966Z,21.25
2022-08-26T02:17:43.359Z,21.19
2022-08-26T02:22:47.688Z,21.15
2022-08-26T02:27:50.905Z,21.16
2022-08-26T02:32:55.090Z,21.12
2022-08-26T02:38:00.491Z,21.01
2022-08-26T02:43:04.037Z,20.95
2022-08-26T02:48:18.755Z,20.91
2022-08-26T02:53:25.214Z,20.83
2022-08-26T02:58:28.405Z,20.72
2022-08-26T03:03:32.099Z,20.65
2022-08-26T03:08:35.717Z,20.60
2022-08-26T03:13:39.865Z,20.59
2022-08-26T03:18:42.867Z,20.59
2022-08-26T03:23:49.998Z,20.61
2022-08-26T03:29:12.025Z,20.60
2022-08-26T03:34:15.921Z,20.53
2022-08-26T03:39:18.854Z,20.43
2022-08-26T03:44:21.890Z,20.36
2022-08-26T03:49:24.744Z,20.32
2022-08-26T03:54:32.016Z,20.28
2022-08-26T03:59:34.861Z,20.29
2022-08-26T04:04:38.034Z,20.30
2022-08-26T04:09:41.225Z,20.31
2022-08-26T04:14:44.138Z,20.32
2022-08-26T04:19:47.512Z,20.29
2022-08-26T04:24:50.430Z,20.27
2022-08-26T04:29:55.402Z,20.26
2022-08-26T04:34:58.946Z,20.30
2022-08-26T04:40:04.842Z,20.36
2022-08-26T04:45:10.302Z,20.40
2022-08-26T04:50:15.380Z,20.43
2022-08-26T04:55:38.144Z,20.47
2022-08-26T05:00:44.752Z,20.54
2022-08-26T05:05:50.065Z,20.58
2022-08-26T05:10:56.164Z,20.64
2022-08-26T05:16:06.139Z,20.68
2022-08-26T05:21:16.091Z,20.70
2022-08-26T05:26:22.914Z,20.74
2022-08-26T05:31:30.388Z,20.85
2022-08-26T05:36:35.873Z,20.97
2022-08-26T05:41:42.237Z,21.09
2022-08-26T05:46:46.122Z,21.19
2022-08-26T05:51:49.339Z,21.27
2022-08-26T05:56:53.749Z,21.35
2022-08-26T06:01:56.686Z,21.42
2022-08-26T06:06:59.710Z,21.49
2022-08-26T06:12:03.572Z,21.60
2022-08-26T06:17:06.528Z,21.67
2022-08-26T06:22:32.445Z,21.73
2022-08-26T06:27:36.907Z,21.81
2022-08-26T06:32:39.786Z,21.86
2022-08-26T06:37:43.369Z,21.91
2022-08-26T06:42:46.780Z,21.96
2022-08-26T06:47:49.740Z,21.99
2022-08-26T06:52:54.581Z,22.01
2022-08-26T06:57:59.952Z,22.06
2022-08-26T07:03:05.200Z,22.13
2022-08-26T07:08:08.262Z,22.21
2022-08-26T07:13:12.507Z,22.27
2022-08-26T07:18:15.666Z,22.34
2022-08-26T07:23:18.582Z,22.45
2022-08-26T07:28:22.875Z,22.54
2022-08-26T07:33:25.913Z,22.64
2022-08-26T07:38:29.380Z,22.75
2022-08-26T07:43:37.409Z,22.86
2022-08-26T07:48:46.155Z,23.00
2022-08-26T07:53:52.540Z,23.15
2022-08-26T07:58:55.754Z,23.29
2022-08-26T08:04:00.502Z,23.42
2022-08-26T08:09:07.331Z,23.56
2022-08-26T08:14:11.721Z,23.71
2022-08-26T08:19:15.465Z,23.84
2022-08-26T08:24:18.364Z,23.98
2022-08-26T08:29:21.482Z,24.10
2022-08-26T08:34:26.565Z,24.22
2022-08-26T08:39:32.215Z,24.32
2022-08-26T08:44:41.011Z,24.43
2022-08-26T08:49:44.808Z,24.56
2022-08-26T08:54:47.889Z,24.69
2022-08-26T09:00:19.672Z,24.80
2022-08-26T09:05:46.691Z,24.93
2022-08-26T09:10:56.388Z,25.08
2022-08-26T09:16:10.317Z,25.22
2022-08-26T09:21:15.910Z,25.36
2022-08-26T09:26:30.808Z,25.51
2022-08-26T09:31:36.601Z,25.71
2022-08-26T09:36:44.020Z,25.90
2022-08-26T09:42:02.987Z,26.11
2022-08-26T09:47:07.368Z,26.32
2022-08-26T09:52:13.806Z,26.55
2022-08-26T09:57:25.114Z,26.76
2022-08-26T10:02:33.665Z,26.98
2022-08-26T10:07:46.898Z,27.21
2022-08-26T10:13:03.665Z,27.49
2022-08-26T10:18:25.213Z,27.78
2022-08-26T10:23:34.775Z,28.05
2022-08-26T10:28:49.583Z,28.29
2022-08-26T10:33:58.027Z,28.54
2022-08-26T10:39:07.093Z,28.79
2022-08-26T10:44:14.080Z,29.04
2022-08-26T10:49:18.048Z,29.22
2022-08-26T10:54:34.200Z,29.37
2022-08-26T10:59:47.239Z,29.46
2022-08-26T11:05:03.295Z,29.52
2022-08-26T11:10:08.234Z,29.58
2022-08-26T11:15:24.685Z,29.69
2022-08-26T11:20:28.130Z,29.88
2022-08-26T11:25:31.494Z,30.10
2022-08-26T11:30:41.668Z,30.26
2022-08-26T11:35:49.119Z,30.42
2022-08-26T11:41:06.964Z,30.58
2022-08-26T11:46:12.378Z,30.73
2022-08-26T11:51:24.446Z,30.90
2022-08-26T11:56:33.257Z,31.07
2022-08-26T12:01:40.405Z,31.22
2022-08-26T12:06:50.945Z,31.43
2022-08-26T12:12:28.527Z,31.62
2022-08-26T12:17:33.767Z,31.74
2022-08-26T12:22:38.534Z,31.85
2022-08-26T12:27:44.509Z,31.97
2022-08-26T12:32:57.976Z,32.02
2022-08-26T12:38:02.385Z,32.12
2022-08-26T12:43:08.175Z,32.27
2022-08-26T12:48:27.695Z,32.45
2022-08-26T12:53:33.496Z,32.63
2022-08-26T12:58:40.094Z,32.80
2022-08-26T13:03:45.554Z,32.98
2022-08-26T13:08:58.078Z,33.14
2022-08-26T13:14:07.151Z,33.25
2022-08-26T13:19:14.766Z,33.28
2022-08-26T13:24:22.116Z,33.33
2022-08-26T13:29:25.570Z,33.35
2022-08-26T13:34:30.020Z,33.38
2022-08-26T13:39:33.539Z,33.33
2022-08-26T13:44:39.309Z,33.34
2022-08-26T13:49:43.997Z,33.41
2022-08-26T13:54:46.927Z,33.48
2022-08-26T13:59:49.911Z,33.45
2022-08-26T14:04:53.990Z,33.47
2022-08-26T14:09:56.813Z,33.44
2022-08-26T14:15:00.493Z,33.39
2022-08-26T14:20:05.583Z,33.34
2022-08-26T14:25:10.990Z,33.32
2022-08-26T14:30:14.962Z,33.23
2022-08-26T14:35:23.287Z,33.01
2022-08-26T14:40:29.810Z,32.60
2022-08-26T14:45:37.927Z,32.24
2022-08-26T14:50:40.885Z,31.92
2022-08-26T14:55:44.016Z,31.72
2022-08-26T15:00:46.952Z,31.56
2022-08-26T15:05:49.920Z,31.40
2022-08-26T15:10:52.952Z,31.23
2022-08-26T15:15:56.073Z,31.09
2022-08-26T15:20:59.303Z,30.96
2022-08-26T15:26:03.367Z,30.86
2022-08-26T15:31:07.463Z,30.80
2022-08-26T15:36:11.917Z,30.73
2022-08-26T15:41:14.815Z,30.64
2022-08-26T15:46:18.892Z,30.58
2022-08-26T15:51:27.196Z,30.52
2022-08-26T15:56:33.146Z,30.41
2022-08-26T16:01:38.007Z,30.27
2022-08-26T16:06:42.572Z,30.18
2022-08-26T16:11:45.407Z,30.07
2022-08-26T16:16:48.833Z,29.95
2022-08-26T16:21:51.977Z,29.85
2022-08-26T16:26:55.165Z,29.77
2022-08-26T16:31:58.150Z,29.68
2022-08-26T16:37:01.151Z,29.58
2022-08-26T16:42:04.591Z,29.49
2022-08-26T16:47:07.581Z,29.39
2022-08-26T16:52:11.607Z,29.27
2022-08-26T16:57:17.070Z,29.14
2022-08-26T17:02:20.137Z,29.02
2022-08-26T17:07:23.547Z,28.89
2022-08-26T17:12:28.479Z,28.76
2022-08-26T17:17:31.547Z,28.64
2022-08-26T17:22:34.838Z,28.51
2022-08-26T17:27:37.936Z,28.42
2022-08-26T17:32:42.443Z,28.32
2022-08-26T17:37:46.637Z,28.20
2022-08-26T17:42:50.362Z,28.05
2022-08-26T17:47:56.950Z,27.91
2022-08-26T17:52:59.855Z,27.75
2022-08-26T17:58:03.936Z,27.61
2022-08-26T18:03:10.502Z,27.52
2022-08-26T18:08:13.741Z,27.42
2022-08-26T18:13:16.731Z,27.31
2022-08-26T18:18:19.677Z,27.18
2022-08-26T18:23:22.583Z,27.02
2022-08-26T18:28:25.626Z,26.87
2022-08-26T18:33:28.532Z,26.72
2022-08-26T18:38:31.490Z,26.61
2022-08-26T18:43:35.812Z,26.49
2022-08-26T18:48:41.047Z,26.38
2022-08-26T18:53:44.154Z,26.27
2022-08-26T18:58:47.285Z,26.13
2022-08-26T19:03:51.380Z,25.98
2022-08-26T19:08:54.474Z,25.84
2022-08-26T19:13:59.265Z,25.72
2022-08-26T19:19:02.898Z,25.61
2022-08-26T19:24:12.357Z,25.51
2022-08-26T19:34:24.395Z,25.28
2022-08-26T19:39:27.788Z,25.16
2022-08-26T19:44:49.424Z,25.07
2022-08-26T19:49:54.559Z,24.95
2022-08-26T19:54:59.051Z,24.86
2022-08-26T20:00:02.913Z,24.76
2022-08-26T20:05:09.610Z,24.66
2022-08-26T20:10:13.812Z,24.56
2022-08-26T20:15:17.131Z,24.45
2022-08-26T20:20:38.799Z,24.36
2022-08-26T20:25:43.011Z,24.27
2022-08-26T20:30:46.165Z,24.19
2022-08-26T20:35:49.133Z,24.12
2022-08-26T20:40:52.080Z,24.03
2022-08-26T20:46:00.180Z,23.96
2022-08-26T20:51:04.321Z,23.89
2022-08-26T20:56:09.164Z,23.81
2022-08-26T21:01:22.095Z,23.72
2022-08-26T21:06:25.145Z,23.62
2022-08-26T21:11:28.468Z,23.52
2022-08-26T21:16:32.267Z,23.41
2022-08-26T21:21:35.859Z,23.28
2022-08-26T21:26:39.016Z,23.18
2022-08-26T21:31:46.543Z,23.08
2022-08-26T21:36:50.139Z,22.99
2022-08-26T21:41:53.059Z,22.92
2022-08-26T21:46:55.949Z,22.82
2022-08-26T21:51:59.128Z,22.73
2022-08-26T21:57:02.419Z,22.60
2022-08-26T22:02:07.368Z,22.51
2022-08-26T22:07:10.372Z,22.45
2022-08-26T22:12:13.838Z,22.39
2022-08-26T22:17:17.141Z,22.34
2022-08-26T22:22:20.638Z,22.28
2022-08-26T22:27:24.331Z,22.24
2022-08-26T22:32:27.397Z,22.18
2022-08-26T22:37:30.239Z,22.11
2022-08-26T22:42:34.499Z,22.04
2022-08-26T22:47:37.880Z,21.99
2022-08-26T22:52:41.082Z,21.94
2022-08-26T22:57:44.796Z,21.88
2022-08-26T23:02:48.191Z,21.84
2022-08-26T23:07:51.280Z,21.78
2022-08-26T23:12:54.237Z,21.72
2022-08-26T23:18:03.139Z,21.67
2022-08-26T23:23:06.286Z,21.60
2022-08-26T23:28:09.401Z,21.54
2022-08-26T23:33:12.902Z,21.49
2022-08-26T23:38:16.057Z,21.44
2022-08-26T23:43:19.042Z,21.39
2022-08-26T23:48:22.511Z,21.34
2022-08-26T23:53:25.425Z,21.29
2022-08-26T23:58:28.371Z,21.25
